sensor_id;sensor_type;location;lat;lon;timestamp;P1;durP1;ratioP1;P2;durP2;ratioP2
75854;SDS011;64502;59.976;30.316;2023-03-21T00:02:15;10.50;;;5.07;;
75854;SDS011;64502;59.976;30.316;2023-03-21T00:04:41;10.90;;;6.00;;
75854;SDS011;64502;59.976;30.316;2023-03-21T00:07:08;12.52;;;6.25;;
75854;SDS011;64502;59.976;30.316;2023-03-21T00:09:38;11.68;;;5.57;;
75854;SDS011;64502;59.976;30.316;2023-03-21T00:12:04;10.43;;;5.18;;
75854;SDS011;64502;59.976;30.316;2023-03-21T00:14:31;9.57;;;5.03;;
75854;SDS011;64502;59.976;30.316;2023-03-21T00:16:57;11.82;;;6.00;;
75854;SDS011;64502;59.976;30.316;2023-03-21T00:19:25;12.65;;;6.20;;
75854;SDS011;64502;59.976;30.316;2023-03-21T00:21:57;10.10;;;4.72;;
75854;SDS011;64502;59.976;30.316;2023-03-21T00:24:37;9.98;;;5.00;;
75854;SDS011;64502;59.976;30.316;2023-03-21T00:27:06;10.68;;;5.38;;
75854;SDS011;64502;59.976;30.316;2023-03-21T00:29:31;10.88;;;5.13;;
75854;SDS011;64502;59.976;30.316;2023-03-21T00:31:57;12.35;;;5.35;;
75854;SDS011;64502;59.976;30.316;2023-03-21T00:34:22;12.98;;;5.25;;
75854;SDS011;64502;59.976;30.316;2023-03-21T00:36:48;11.45;;;5.57;;
75854;SDS011;64502;59.976;30.316;2023-03-21T00:39:13;12.57;;;6.25;;
75854;SDS011;64502;59.976;30.316;2023-03-21T00:41:39;14.15;;;5.90;;
75854;SDS011;64502;59.976;30.316;2023-03-21T00:44:05;11.77;;;6.28;;
75854;SDS011;64502;59.976;30.316;2023-03-21T00:46:30;13.35;;;6.22;;
75854;SDS011;64502;59.976;30.316;2023-03-21T00:48:56;11.88;;;5.75;;
75854;SDS011;64502;59.976;30.316;2023-03-21T00:51:22;13.10;;;6.07;;
75854;SDS011;64502;59.976;30.316;2023-03-21T00:53:54;12.43;;;5.90;;
75854;SDS011;64502;59.976;30.316;2023-03-21T00:56:27;15.20;;;6.95;;
75854;SDS011;64502;59.976;30.316;2023-03-21T00:59:00;12.23;;;5.93;;
75854;SDS011;64502;59.976;30.316;2023-03-21T01:01:26;12.90;;;5.55;;
75854;SDS011;64502;59.976;30.316;2023-03-21T01:03:56;11.85;;;4.88;;
75854;SDS011;64502;59.976;30.316;2023-03-21T01:06:27;12.18;;;6.55;;
75854;SDS011;64502;59.976;30.316;2023-03-21T01:08:53;11.07;;;5.72;;
75854;SDS011;64502;59.976;30.316;2023-03-21T01:11:20;11.73;;;6.03;;
75854;SDS011;64502;59.976;30.316;2023-03-21T01:13:48;11.73;;;5.70;;
75854;SDS011;64502;59.976;30.316;2023-03-21T01:16:14;9.73;;;5.25;;
75854;SDS011;64502;59.976;30.316;2023-03-21T01:18:40;8.82;;;4.35;;
75854;SDS011;64502;59.976;30.316;2023-03-21T01:21:08;9.90;;;5.78;;
75854;SDS011;64502;59.976;30.316;2023-03-21T01:23:36;11.02;;;5.40;;
75854;SDS011;64502;59.976;30.316;2023-03-21T01:26:02;12.18;;;6.40;;
75854;SDS011;64502;59.976;30.316;2023-03-21T01:28:29;10.65;;;5.60;;
75854;SDS011;64502;59.976;30.316;2023-03-21T01:30:55;11.50;;;6.10;;
75854;SDS011;64502;59.976;30.316;2023-03-21T01:33:21;9.43;;;4.50;;
75854;SDS011;64502;59.976;30.316;2023-03-21T01:35:47;4.43;;;1.25;;
75854;SDS011;64502;59.976;30.316;2023-03-21T01:38:13;1.80;;;0.60;;
75854;SDS011;64502;59.976;30.316;2023-03-21T01:40:39;1.13;;;0.20;;
75854;SDS011;64502;59.976;30.316;2023-03-21T01:43:20;2.67;;;0.30;;
75854;SDS011;64502;59.976;30.316;2023-03-21T01:48:53;1.25;;;0.25;;
75854;SDS011;64502;59.976;30.316;2023-03-21T01:51:26;0.70;;;0.13;;
75854;SDS011;64502;59.976;30.316;2023-03-21T01:53:53;1.08;;;0.30;;
75854;SDS011;64502;59.976;30.316;2023-03-21T01:58:51;0.80;;;0.10;;
75854;SDS011;64502;59.976;30.316;2023-03-21T02:01:19;0.60;;;0.10;;
75854;SDS011;64502;59.976;30.316;2023-03-21T02:03:47;0.73;;;0.10;;
75854;SDS011;64502;59.976;30.316;2023-03-21T02:06:15;0.80;;;0.20;;
75854;SDS011;64502;59.976;30.316;2023-03-21T02:11:28;0.47;;;0.00;;
75854;SDS011;64502;59.976;30.316;2023-03-21T02:13:54;1.23;;;0.20;;
75854;SDS011;64502;59.976;30.316;2023-03-21T02:16:24;1.13;;;0.20;;
75854;SDS011;64502;59.976;30.316;2023-03-21T02:19:06;0.57;;;0.10;;
75854;SDS011;64502;59.976;30.316;2023-03-21T02:35:51;0.70;;;0.38;;
75854;SDS011;64502;59.976;30.316;2023-03-21T02:38:42;1.15;;;0.28;;
75854;SDS011;64502;59.976;30.316;2023-03-21T02:41:23;0.88;;;0.10;;
75854;SDS011;64502;59.976;30.316;2023-03-21T02:44:06;0.63;;;0.10;;
75854;SDS011;64502;59.976;30.316;2023-03-21T02:46:54;0.60;;;0.10;;
75854;SDS011;64502;59.976;30.316;2023-03-21T02:52:02;0.40;;;0.10;;
75854;SDS011;64502;59.976;30.316;2023-03-21T02:54:32;0.57;;;0.15;;
75854;SDS011;64502;59.976;30.316;2023-03-21T02:56:59;0.50;;;0.10;;
75854;SDS011;64502;59.976;30.316;2023-03-21T02:59:28;0.80;;;0.10;;
75854;SDS011;64502;59.976;30.316;2023-03-21T03:01:55;0.75;;;0.10;;
75854;SDS011;64502;59.976;30.316;2023-03-21T03:04:23;0.80;;;0.05;;
75854;SDS011;64502;59.976;30.316;2023-03-21T03:12:10;0.60;;;0.03;;
75854;SDS011;64502;59.976;30.316;2023-03-21T03:14:49;0.50;;;0.10;;
75854;SDS011;64502;59.976;30.316;2023-03-21T03:17:31;0.50;;;0.20;;
75854;SDS011;64502;59.976;30.316;2023-03-21T03:22:47;0.45;;;0.13;;
75854;SDS011;64502;59.976;30.316;2023-03-21T03:25:30;0.60;;;0.10;;
75854;SDS011;64502;59.976;30.316;2023-03-21T03:28:04;0.70;;;0.10;;
75854;SDS011;64502;59.976;30.316;2023-03-21T03:30:31;0.85;;;0.00;;
75854;SDS011;64502;59.976;30.316;2023-03-21T03:33:00;0.60;;;0.10;;
75854;SDS011;64502;59.976;30.316;2023-03-21T03:35:30;0.60;;;0.20;;
75854;SDS011;64502;59.976;30.316;2023-03-21T03:37:56;0.60;;;0.00;;
75854;SDS011;64502;59.976;30.316;2023-03-21T03:40:30;0.60;;;0.00;;
75854;SDS011;64502;59.976;30.316;2023-03-21T03:43:06;0.30;;;0.00;;
75854;SDS011;64502;59.976;30.316;2023-03-21T03:45:49;0.85;;;0.10;;
75854;SDS011;64502;59.976;30.316;2023-03-21T03:48:25;0.75;;;0.00;;
75854;SDS011;64502;59.976;30.316;2023-03-21T03:51:05;0.73;;;0.17;;
75854;SDS011;64502;59.976;30.316;2023-03-21T03:53:51;0.63;;;0.00;;
75854;SDS011;64502;59.976;30.316;2023-03-21T03:56:25;0.60;;;0.00;;
75854;SDS011;64502;59.976;30.316;2023-03-21T03:58:52;0.73;;;0.10;;
75854;SDS011;64502;59.976;30.316;2023-03-21T04:01:18;2.42;;;0.08;;
75854;SDS011;64502;59.976;30.316;2023-03-21T04:03:44;0.65;;;0.10;;
75854;SDS011;64502;59.976;30.316;2023-03-21T04:06:13;0.65;;;0.00;;
75854;SDS011;64502;59.976;30.316;2023-03-21T04:08:40;0.13;;;0.00;;
75854;SDS011;64502;59.976;30.316;2023-03-21T04:11:06;1.10;;;0.00;;
75854;SDS011;64502;59.976;30.316;2023-03-21T04:13:32;0.60;;;0.10;;
75854;SDS011;64502;59.976;30.316;2023-03-21T04:15:58;1.08;;;0.10;;
75854;SDS011;64502;59.976;30.316;2023-03-21T04:18:24;0.73;;;0.00;;
75854;SDS011;64502;59.976;30.316;2023-03-21T04:20:50;0.60;;;0.00;;
75854;SDS011;64502;59.976;30.316;2023-03-21T04:23:17;3.10;;;0.10;;
75854;SDS011;64502;59.976;30.316;2023-03-21T04:25:43;0.70;;;0.00;;
75854;SDS011;64502;59.976;30.316;2023-03-21T04:28:09;0.68;;;0.10;;
75854;SDS011;64502;59.976;30.316;2023-03-21T04:30:36;0.90;;;0.10;;
75854;SDS011;64502;59.976;30.316;2023-03-21T04:33:01;1.17;;;0.20;;
75854;SDS011;64502;59.976;30.316;2023-03-21T04:35:27;1.20;;;0.20;;
75854;SDS011;64502;59.976;30.316;2023-03-21T04:37:53;1.15;;;0.20;;
75854;SDS011;64502;59.976;30.316;2023-03-21T04:40:19;1.08;;;0.10;;
75854;SDS011;64502;59.976;30.316;2023-03-21T04:42:46;1.20;;;0.10;;
75854;SDS011;64502;59.976;30.316;2023-03-21T04:45:12;1.00;;;0.10;;
75854;SDS011;64502;59.976;30.316;2023-03-21T04:47:38;1.63;;;0.20;;
75854;SDS011;64502;59.976;30.316;2023-03-21T04:50:05;0.90;;;0.20;;
75854;SDS011;64502;59.976;30.316;2023-03-21T04:52:31;1.27;;;0.20;;
75854;SDS011;64502;59.976;30.316;2023-03-21T04:54:56;1.25;;;0.20;;
75854;SDS011;64502;59.976;30.316;2023-03-21T04:57:22;1.55;;;0.30;;
75854;SDS011;64502;59.976;30.316;2023-03-21T04:59:47;2.38;;;0.30;;
75854;SDS011;64502;59.976;30.316;2023-03-21T05:02:12;3.35;;;0.60;;
75854;SDS011;64502;59.976;30.316;2023-03-21T05:04:38;1.92;;;0.40;;
75854;SDS011;64502;59.976;30.316;2023-03-21T05:07:04;2.85;;;0.40;;
75854;SDS011;64502;59.976;30.316;2023-03-21T05:09:29;1.55;;;0.52;;
75854;SDS011;64502;59.976;30.316;2023-03-21T05:11:55;1.90;;;0.70;;
75854;SDS011;64502;59.976;30.316;2023-03-21T05:14:21;2.50;;;0.45;;
75854;SDS011;64502;59.976;30.316;2023-03-21T05:16:48;1.88;;;0.50;;
75854;SDS011;64502;59.976;30.316;2023-03-21T05:19:21;1.90;;;0.40;;
75854;SDS011;64502;59.976;30.316;2023-03-21T05:21:50;1.10;;;0.22;;
75854;SDS011;64502;59.976;30.316;2023-03-21T05:24:19;1.20;;;0.22;;
75854;SDS011;64502;59.976;30.316;2023-03-21T05:26:46;2.70;;;0.40;;
75854;SDS011;64502;59.976;30.316;2023-03-21T05:29:16;1.63;;;0.50;;
75854;SDS011;64502;59.976;30.316;2023-03-21T05:31:43;1.80;;;0.40;;
75854;SDS011;64502;59.976;30.316;2023-03-21T05:34:10;1.77;;;0.60;;
75854;SDS011;64502;59.976;30.316;2023-03-21T05:36:36;1.65;;;0.40;;
75854;SDS011;64502;59.976;30.316;2023-03-21T05:39:03;2.45;;;0.50;;
75854;SDS011;64502;59.976;30.316;2023-03-21T05:41:28;1.73;;;0.52;;
75854;SDS011;64502;59.976;30.316;2023-03-21T05:43:54;3.03;;;0.75;;
75854;SDS011;64502;59.976;30.316;2023-03-21T05:46:19;2.00;;;0.65;;
75854;SDS011;64502;59.976;30.316;2023-03-21T05:48:45;1.80;;;0.55;;
75854;SDS011;64502;59.976;30.316;2023-03-21T05:51:10;2.55;;;0.52;;
75854;SDS011;64502;59.976;30.316;2023-03-21T05:53:36;1.67;;;0.55;;
75854;SDS011;64502;59.976;30.316;2023-03-21T05:56:01;1.73;;;0.47;;
75854;SDS011;64502;59.976;30.316;2023-03-21T05:58:27;2.33;;;0.40;;
75854;SDS011;64502;59.976;30.316;2023-03-21T06:00:53;1.20;;;0.30;;
75854;SDS011;64502;59.976;30.316;2023-03-21T06:03:19;1.90;;;0.43;;
75854;SDS011;64502;59.976;30.316;2023-03-21T06:05:45;3.10;;;0.93;;
75854;SDS011;64502;59.976;30.316;2023-03-21T06:08:10;1.85;;;0.32;;
75854;SDS011;64502;59.976;30.316;2023-03-21T06:10:36;1.20;;;0.40;;
75854;SDS011;64502;59.976;30.316;2023-03-21T06:13:01;1.70;;;0.30;;
75854;SDS011;64502;59.976;30.316;2023-03-21T06:15:27;3.63;;;0.70;;
75854;SDS011;64502;59.976;30.316;2023-03-21T06:17:52;2.75;;;0.90;;
75854;SDS011;64502;59.976;30.316;2023-03-21T06:20:18;2.28;;;0.65;;
75854;SDS011;64502;59.976;30.316;2023-03-21T06:22:43;2.22;;;0.63;;
75854;SDS011;64502;59.976;30.316;2023-03-21T06:25:09;1.50;;;0.40;;
75854;SDS011;64502;59.976;30.316;2023-03-21T06:27:35;5.40;;;0.95;;
75854;SDS011;64502;59.976;30.316;2023-03-21T06:30:01;1.63;;;0.40;;
75854;SDS011;64502;59.976;30.316;2023-03-21T06:32:27;2.45;;;0.50;;
75854;SDS011;64502;59.976;30.316;2023-03-21T06:34:53;2.50;;;1.15;;
75854;SDS011;64502;59.976;30.316;2023-03-21T06:37:18;2.55;;;0.55;;
75854;SDS011;64502;59.976;30.316;2023-03-21T06:39:44;1.70;;;0.73;;
75854;SDS011;64502;59.976;30.316;2023-03-21T06:42:11;2.03;;;0.57;;
75854;SDS011;64502;59.976;30.316;2023-03-21T06:44:37;2.75;;;0.98;;
75854;SDS011;64502;59.976;30.316;2023-03-21T06:47:03;2.42;;;0.82;;
75854;SDS011;64502;59.976;30.316;2023-03-21T06:49:29;2.28;;;0.75;;
75854;SDS011;64502;59.976;30.316;2023-03-21T06:51:55;2.95;;;1.35;;
75854;SDS011;64502;59.976;30.316;2023-03-21T06:54:22;1.98;;;0.75;;
75854;SDS011;64502;59.976;30.316;2023-03-21T06:56:47;2.05;;;0.60;;
75854;SDS011;64502;59.976;30.316;2023-03-21T06:59:13;2.38;;;0.57;;
75854;SDS011;64502;59.976;30.316;2023-03-21T07:01:38;2.17;;;0.63;;
75854;SDS011;64502;59.976;30.316;2023-03-21T07:04:04;4.78;;;0.60;;
75854;SDS011;64502;59.976;30.316;2023-03-21T07:06:30;2.97;;;0.68;;
75854;SDS011;64502;59.976;30.316;2023-03-21T07:08:56;2.20;;;0.85;;
75854;SDS011;64502;59.976;30.316;2023-03-21T07:11:22;3.67;;;0.65;;
75854;SDS011;64502;59.976;30.316;2023-03-21T07:13:49;2.13;;;0.32;;
75854;SDS011;64502;59.976;30.316;2023-03-21T07:16:15;4.70;;;0.50;;
75854;SDS011;64502;59.976;30.316;2023-03-21T07:18:41;4.43;;;1.02;;
75854;SDS011;64502;59.976;30.316;2023-03-21T07:21:07;1.40;;;0.45;;
75854;SDS011;64502;59.976;30.316;2023-03-21T07:23:37;3.03;;;0.47;;
75854;SDS011;64502;59.976;30.316;2023-03-21T07:26:04;3.15;;;0.50;;
75854;SDS011;64502;59.976;30.316;2023-03-21T07:29:30;1.85;;;0.68;;
75854;SDS011;64502;59.976;30.316;2023-03-21T07:31:56;3.00;;;0.80;;
75854;SDS011;64502;59.976;30.316;2023-03-21T07:34:21;3.92;;;0.70;;
75854;SDS011;64502;59.976;30.316;2023-03-21T07:36:47;2.00;;;0.93;;
75854;SDS011;64502;59.976;30.316;2023-03-21T07:39:12;1.23;;;0.50;;
75854;SDS011;64502;59.976;30.316;2023-03-21T07:41:38;2.88;;;0.90;;
75854;SDS011;64502;59.976;30.316;2023-03-21T07:44:03;2.55;;;0.43;;
75854;SDS011;64502;59.976;30.316;2023-03-21T07:46:29;3.58;;;0.65;;
75854;SDS011;64502;59.976;30.316;2023-03-21T07:48:55;2.80;;;0.85;;
75854;SDS011;64502;59.976;30.316;2023-03-21T07:51:20;2.88;;;0.57;;
75854;SDS011;64502;59.976;30.316;2023-03-21T07:53:45;2.47;;;0.63;;
75854;SDS011;64502;59.976;30.316;2023-03-21T07:56:13;1.70;;;0.63;;
75854;SDS011;64502;59.976;30.316;2023-03-21T07:58:41;2.47;;;0.70;;
75854;SDS011;64502;59.976;30.316;2023-03-21T08:01:07;2.47;;;0.80;;
75854;SDS011;64502;59.976;30.316;2023-03-21T08:03:35;4.57;;;0.93;;
75854;SDS011;64502;59.976;30.316;2023-03-21T08:06:02;1.67;;;0.80;;
75854;SDS011;64502;59.976;30.316;2023-03-21T08:08:27;2.88;;;0.75;;
75854;SDS011;64502;59.976;30.316;2023-03-21T08:10:55;1.40;;;0.70;;
75854;SDS011;64502;59.976;30.316;2023-03-21T08:13:23;1.42;;;0.47;;
75854;SDS011;64502;59.976;30.316;2023-03-21T08:15:50;1.40;;;0.50;;
75854;SDS011;64502;59.976;30.316;2023-03-21T08:21:57;1.85;;;0.60;;
75854;SDS011;64502;59.976;30.316;2023-03-21T08:24:26;1.85;;;0.77;;
75854;SDS011;64502;59.976;30.316;2023-03-21T08:26:53;2.20;;;0.50;;
75854;SDS011;64502;59.976;30.316;2023-03-21T08:29:19;1.65;;;0.70;;
75854;SDS011;64502;59.976;30.316;2023-03-21T08:31:46;1.63;;;0.88;;
75854;SDS011;64502;59.976;30.316;2023-03-21T08:34:12;1.85;;;0.73;;
75854;SDS011;64502;59.976;30.316;2023-03-21T08:36:38;3.17;;;0.90;;
75854;SDS011;64502;59.976;30.316;2023-03-21T08:39:04;3.63;;;0.90;;
75854;SDS011;64502;59.976;30.316;2023-03-21T08:41:34;3.40;;;0.80;;
75854;SDS011;64502;59.976;30.316;2023-03-21T08:44:01;3.72;;;0.98;;
75854;SDS011;64502;59.976;30.316;2023-03-21T08:46:27;2.50;;;0.63;;
75854;SDS011;64502;59.976;30.316;2023-03-21T08:51:54;2.63;;;0.80;;
75854;SDS011;64502;59.976;30.316;2023-03-21T08:54:21;1.75;;;0.50;;
75854;SDS011;64502;59.976;30.316;2023-03-21T08:56:47;3.38;;;1.00;;
75854;SDS011;64502;59.976;30.316;2023-03-21T08:59:13;2.20;;;0.70;;
75854;SDS011;64502;59.976;30.316;2023-03-21T09:01:40;1.45;;;0.50;;
75854;SDS011;64502;59.976;30.316;2023-03-21T09:04:05;3.05;;;0.63;;
75854;SDS011;64502;59.976;30.316;2023-03-21T09:06:34;1.83;;;0.55;;
75854;SDS011;64502;59.976;30.316;2023-03-21T09:09:01;2.88;;;0.57;;
75854;SDS011;64502;59.976;30.316;2023-03-21T09:11:27;6.32;;;0.75;;
75854;SDS011;64502;59.976;30.316;2023-03-21T09:13:53;1.38;;;0.45;;
75854;SDS011;64502;59.976;30.316;2023-03-21T09:16:18;1.50;;;0.57;;
75854;SDS011;64502;59.976;30.316;2023-03-21T09:18:44;1.33;;;0.63;;
75854;SDS011;64502;59.976;30.316;2023-03-21T09:21:13;2.22;;;0.75;;
75854;SDS011;64502;59.976;30.316;2023-03-21T09:23:40;1.55;;;0.68;;
75854;SDS011;64502;59.976;30.316;2023-03-21T09:26:06;1.30;;;0.60;;
75854;SDS011;64502;59.976;30.316;2023-03-21T09:28:33;1.00;;;0.20;;
75854;SDS011;64502;59.976;30.316;2023-03-21T09:31:01;1.48;;;0.73;;
75854;SDS011;64502;59.976;30.316;2023-03-21T09:33:28;1.55;;;0.52;;
75854;SDS011;64502;59.976;30.316;2023-03-21T09:35:54;1.25;;;0.50;;
75854;SDS011;64502;59.976;30.316;2023-03-21T09:38:20;1.58;;;0.60;;
75854;SDS011;64502;59.976;30.316;2023-03-21T09:47:05;2.13;;;0.73;;
75854;SDS011;64502;59.976;30.316;2023-03-21T09:49:45;1.25;;;0.40;;
75854;SDS011;64502;59.976;30.316;2023-03-21T09:52:42;1.25;;;0.70;;
75854;SDS011;64502;59.976;30.316;2023-03-21T09:55:16;3.47;;;0.85;;
75854;SDS011;64502;59.976;30.316;2023-03-21T09:57:53;2.80;;;0.73;;
75854;SDS011;64502;59.976;30.316;2023-03-21T10:00:29;1.98;;;0.93;;
75854;SDS011;64502;59.976;30.316;2023-03-21T10:03:00;1.25;;;0.60;;
75854;SDS011;64502;59.976;30.316;2023-03-21T10:05:31;2.42;;;0.70;;
75854;SDS011;64502;59.976;30.316;2023-03-21T10:08:06;1.63;;;0.70;;
75854;SDS011;64502;59.976;30.316;2023-03-21T10:10:38;1.70;;;0.70;;
75854;SDS011;64502;59.976;30.316;2023-03-21T10:13:32;2.28;;;0.60;;
75854;SDS011;64502;59.976;30.316;2023-03-21T10:16:14;2.28;;;0.93;;
75854;SDS011;64502;59.976;30.316;2023-03-21T10:18:41;1.95;;;0.95;;
75854;SDS011;64502;59.976;30.316;2023-03-21T10:21:11;1.98;;;0.85;;
75854;SDS011;64502;59.976;30.316;2023-03-21T10:23:44;1.48;;;0.60;;
75854;SDS011;64502;59.976;30.316;2023-03-21T10:26:10;2.28;;;0.60;;
75854;SDS011;64502;59.976;30.316;2023-03-21T10:28:37;3.03;;;0.98;;
75854;SDS011;64502;59.976;30.316;2023-03-21T10:31:06;2.88;;;0.95;;
75854;SDS011;64502;59.976;30.316;2023-03-21T10:33:34;3.28;;;0.88;;
75854;SDS011;64502;59.976;30.316;2023-03-21T10:36:10;1.50;;;0.80;;
75854;SDS011;64502;59.976;30.316;2023-03-21T10:41:11;1.58;;;0.82;;
75854;SDS011;64502;59.976;30.316;2023-03-21T10:43:38;3.72;;;1.10;;
75854;SDS011;64502;59.976;30.316;2023-03-21T10:46:12;3.15;;;0.98;;
75854;SDS011;64502;59.976;30.316;2023-03-21T10:48:42;2.50;;;0.85;;
75854;SDS011;64502;59.976;30.316;2023-03-21T10:51:11;3.45;;;0.88;;
75854;SDS011;64502;59.976;30.316;2023-03-21T10:53:59;3.92;;;2.22;;
75854;SDS011;64502;59.976;30.316;2023-03-21T10:56:30;1.33;;;0.52;;
75854;SDS011;64502;59.976;30.316;2023-03-21T10:59:01;1.65;;;0.90;;
75854;SDS011;64502;59.976;30.316;2023-03-21T11:01:30;2.20;;;0.50;;
75854;SDS011;64502;59.976;30.316;2023-03-21T11:04:06;3.45;;;0.40;;
75854;SDS011;64502;59.976;30.316;2023-03-21T11:11:33;1.50;;;0.75;;
75854;SDS011;64502;59.976;30.316;2023-03-21T11:14:03;3.72;;;0.90;;
75854;SDS011;64502;59.976;30.316;2023-03-21T11:19:11;2.28;;;0.75;;
75854;SDS011;64502;59.976;30.316;2023-03-21T11:24:04;2.83;;;0.40;;
75854;SDS011;64502;59.976;30.316;2023-03-21T11:26:34;1.98;;;0.88;;
75854;SDS011;64502;59.976;30.316;2023-03-21T11:29:09;4.25;;;1.33;;
75854;SDS011;64502;59.976;30.316;2023-03-21T11:31:57;1.38;;;0.77;;
75854;SDS011;64502;59.976;30.316;2023-03-21T11:36:58;1.88;;;0.65;;
75854;SDS011;64502;59.976;30.316;2023-03-21T11:39:32;3.28;;;0.55;;
75854;SDS011;64502;59.976;30.316;2023-03-21T11:42:05;3.00;;;0.95;;
75854;SDS011;64502;59.976;30.316;2023-03-21T11:44:49;2.63;;;0.77;;
75854;SDS011;64502;59.976;30.316;2023-03-21T11:47:24;1.95;;;0.20;;
75854;SDS011;64502;59.976;30.316;2023-03-21T11:49:49;1.48;;;0.60;;
75854;SDS011;64502;59.976;30.316;2023-03-21T11:52:28;1.60;;;0.40;;
75854;SDS011;64502;59.976;30.316;2023-03-21T11:55:12;2.78;;;0.50;;
75854;SDS011;64502;59.976;30.316;2023-03-21T11:57:53;2.13;;;0.63;;
75854;SDS011;64502;59.976;30.316;2023-03-21T12:00:21;2.05;;;0.65;;
75854;SDS011;64502;59.976;30.316;2023-03-21T12:05:35;3.47;;;0.73;;
75854;SDS011;64502;59.976;30.316;2023-03-21T12:08:18;4.47;;;0.73;;
75854;SDS011;64502;59.976;30.316;2023-03-21T12:18:55;1.48;;;0.40;;
75854;SDS011;64502;59.976;30.316;2023-03-21T12:24:06;5.05;;;0.93;;
75854;SDS011;64502;59.976;30.316;2023-03-21T12:26:42;1.00;;;0.32;;
75854;SDS011;64502;59.976;30.316;2023-03-21T12:40:21;1.88;;;0.50;;
75854;SDS011;64502;59.976;30.316;2023-03-21T12:45:32;2.10;;;0.57;;
75854;SDS011;64502;59.976;30.316;2023-03-21T12:48:27;2.15;;;0.50;;
75854;SDS011;64502;59.976;30.316;2023-03-21T12:51:00;3.38;;;0.70;;
75854;SDS011;64502;59.976;30.316;2023-03-21T12:56:28;1.33;;;0.20;;
75854;SDS011;64502;59.976;30.316;2023-03-21T12:59:00;2.28;;;0.50;;
75854;SDS011;64502;59.976;30.316;2023-03-21T13:01:38;1.83;;;0.55;;
75854;SDS011;64502;59.976;30.316;2023-03-21T13:04:19;2.92;;;0.50;;
75854;SDS011;64502;59.976;30.316;2023-03-21T13:06:54;1.35;;;0.30;;
75854;SDS011;64502;59.976;30.316;2023-03-21T13:09:27;2.95;;;0.63;;
75854;SDS011;64502;59.976;30.316;2023-03-21T13:11:58;1.40;;;0.77;;
75854;SDS011;64502;59.976;30.316;2023-03-21T13:14:35;1.27;;;0.10;;
75854;SDS011;64502;59.976;30.316;2023-03-21T13:17:11;1.10;;;0.30;;
75854;SDS011;64502;59.976;30.316;2023-03-21T13:19:49;2.08;;;0.60;;
75854;SDS011;64502;59.976;30.316;2023-03-21T13:25:01;4.65;;;0.50;;
75854;SDS011;64502;59.976;30.316;2023-03-21T13:27:29;2.60;;;0.65;;
75854;SDS011;64502;59.976;30.316;2023-03-21T13:29:58;5.38;;;0.60;;
75854;SDS011;64502;59.976;30.316;2023-03-21T13:32:27;1.30;;;0.50;;
75854;SDS011;64502;59.976;30.316;2023-03-21T13:37:43;1.27;;;0.40;;
75854;SDS011;64502;59.976;30.316;2023-03-21T13:40:23;1.00;;;0.40;;
75854;SDS011;64502;59.976;30.316;2023-03-21T13:42:55;3.55;;;0.60;;
75854;SDS011;64502;59.976;30.316;2023-03-21T13:45:26;1.50;;;0.43;;
75854;SDS011;64502;59.976;30.316;2023-03-21T13:48:24;1.52;;;0.60;;
75854;SDS011;64502;59.976;30.316;2023-03-21T13:50:59;1.75;;;0.40;;
75854;SDS011;64502;59.976;30.316;2023-03-21T13:53:35;2.78;;;0.70;;
75854;SDS011;64502;59.976;30.316;2023-03-21T13:58:37;1.50;;;0.77;;
75854;SDS011;64502;59.976;30.316;2023-03-21T14:03:45;1.42;;;0.30;;
75854;SDS011;64502;59.976;30.316;2023-03-21T14:06:11;1.27;;;0.55;;
75854;SDS011;64502;59.976;30.316;2023-03-21T14:08:38;2.47;;;0.73;;
75854;SDS011;64502;59.976;30.316;2023-03-21T14:11:09;3.42;;;0.45;;
75854;SDS011;64502;59.976;30.316;2023-03-21T14:13:40;2.15;;;0.70;;
75854;SDS011;64502;59.976;30.316;2023-03-21T14:16:14;1.75;;;0.55;;
75854;SDS011;64502;59.976;30.316;2023-03-21T14:18:47;5.15;;;0.93;;
75854;SDS011;64502;59.976;30.316;2023-03-21T14:21:18;3.28;;;1.00;;
75854;SDS011;64502;59.976;30.316;2023-03-21T14:26:21;2.85;;;0.40;;
75854;SDS011;64502;59.976;30.316;2023-03-21T14:28:47;3.30;;;0.80;;
75854;SDS011;64502;59.976;30.316;2023-03-21T14:31:15;1.58;;;0.60;;
75854;SDS011;64502;59.976;30.316;2023-03-21T14:33:44;2.42;;;1.10;;
75854;SDS011;64502;59.976;30.316;2023-03-21T14:36:16;9.30;;;1.00;;
75854;SDS011;64502;59.976;30.316;2023-03-21T14:39:02;3.17;;;1.00;;
75854;SDS011;64502;59.976;30.316;2023-03-21T14:41:45;1.60;;;0.60;;
75854;SDS011;64502;59.976;30.316;2023-03-21T14:47:04;2.80;;;0.80;;
75854;SDS011;64502;59.976;30.316;2023-03-21T14:49:33;3.35;;;0.70;;
75854;SDS011;64502;59.976;30.316;2023-03-21T14:52:01;2.42;;;1.10;;
75854;SDS011;64502;59.976;30.316;2023-03-21T14:56:59;3.38;;;1.10;;
75854;SDS011;64502;59.976;30.316;2023-03-21T14:59:37;1.88;;;0.85;;
75854;SDS011;64502;59.976;30.316;2023-03-21T15:02:10;1.98;;;0.65;;
75854;SDS011;64502;59.976;30.316;2023-03-21T15:04:38;1.85;;;0.68;;
75854;SDS011;64502;59.976;30.316;2023-03-21T15:07:03;1.65;;;0.60;;
75854;SDS011;64502;59.976;30.316;2023-03-21T15:09:32;1.70;;;1.30;;
75854;SDS011;64502;59.976;30.316;2023-03-21T15:11:59;3.50;;;0.82;;
75854;SDS011;64502;59.976;30.316;2023-03-21T15:14:34;1.73;;;0.80;;
75854;SDS011;64502;59.976;30.316;2023-03-21T15:17:01;1.40;;;0.55;;
75854;SDS011;64502;59.976;30.316;2023-03-21T15:19:33;3.10;;;0.88;;
75854;SDS011;64502;59.976;30.316;2023-03-21T15:22:14;1.55;;;0.45;;
75854;SDS011;64502;59.976;30.316;2023-03-21T15:24:44;2.70;;;0.90;;
75854;SDS011;64502;59.976;30.316;2023-03-21T15:27:16;2.53;;;0.77;;
75854;SDS011;64502;59.976;30.316;2023-03-21T15:29:44;1.90;;;0.65;;
75854;SDS011;64502;59.976;30.316;2023-03-21T15:32:16;3.33;;;1.05;;
75854;SDS011;64502;59.976;30.316;2023-03-21T15:34:46;1.52;;;0.85;;
75854;SDS011;64502;59.976;30.316;2023-03-21T15:37:17;3.17;;;0.82;;
75854;SDS011;64502;59.976;30.316;2023-03-21T15:39:47;2.80;;;0.73;;
75854;SDS011;64502;59.976;30.316;2023-03-21T15:42:24;2.47;;;0.52;;
75854;SDS011;64502;59.976;30.316;2023-03-21T15:44:51;2.75;;;1.40;;
75854;SDS011;64502;59.976;30.316;2023-03-21T15:50:26;3.33;;;0.65;;
75854;SDS011;64502;59.976;30.316;2023-03-21T15:52:53;1.95;;;0.82;;
75854;SDS011;64502;59.976;30.316;2023-03-21T15:55:24;1.77;;;0.85;;
75854;SDS011;64502;59.976;30.316;2023-03-21T15:58:07;1.65;;;0.80;;
75854;SDS011;64502;59.976;30.316;2023-03-21T16:00:41;2.75;;;0.70;;
75854;SDS011;64502;59.976;30.316;2023-03-21T16:08:34;4.07;;;0.98;;
75854;SDS011;64502;59.976;30.316;2023-03-21T16:11:13;2.30;;;0.80;;
75854;SDS011;64502;59.976;30.316;2023-03-21T16:14:00;3.00;;;0.30;;
75854;SDS011;64502;59.976;30.316;2023-03-21T16:16:27;1.60;;;0.65;;
75854;SDS011;64502;59.976;30.316;2023-03-21T16:18:54;1.95;;;0.43;;
75854;SDS011;64502;59.976;30.316;2023-03-21T16:21:21;1.60;;;0.57;;
75854;SDS011;64502;59.976;30.316;2023-03-21T16:23:52;2.80;;;0.55;;
75854;SDS011;64502;59.976;30.316;2023-03-21T16:26:20;3.95;;;0.35;;
75854;SDS011;64502;59.976;30.316;2023-03-21T16:28:49;1.17;;;0.38;;
75854;SDS011;64502;59.976;30.316;2023-03-21T16:31:18;2.15;;;0.70;;
75854;SDS011;64502;59.976;30.316;2023-03-21T16:33:49;2.05;;;0.55;;
75854;SDS011;64502;59.976;30.316;2023-03-21T16:38:50;1.77;;;0.28;;
75854;SDS011;64502;59.976;30.316;2023-03-21T16:41:21;1.77;;;0.80;;
75854;SDS011;64502;59.976;30.316;2023-03-21T16:43:48;1.95;;;0.30;;
75854;SDS011;64502;59.976;30.316;2023-03-21T16:46:19;1.20;;;0.35;;
75854;SDS011;64502;59.976;30.316;2023-03-21T16:48:46;1.33;;;0.40;;
75854;SDS011;64502;59.976;30.316;2023-03-21T16:51:13;1.13;;;0.32;;